Airfield :
LOGIN :

Register | Disclaimer

   EN    FR    IT 

 










Legend :    VFR   Marginal VFR   IFR   Intensive IFR   Very Intensive IFR
Visi :
Ceiling :
>= 8 km
>= 3000ft
5 to 8 km
1000 to 3000 ft
1500m to 5 km
500 to 1000 ft
800 to 1500m
200 to 500 ft
< 800m
< 200 ft
Symbols :   Thunderstorms  Fog  Heavy snow  Heavy precipitations  Wind > 20 kt
SIGMETs :     Misc.  Thunderstorms  Icing  Turbulence  Mountain Waves  Volcanic Ashes







- Airport Elevation : 74 ft
- IATA code : NDZ


ETMN - Cuxhaven Nordholz Sea AB

CURRENT METAR :
  • 201152Z 06009KT 9999 BKN018 19/14 Q1006 WHT WHT BECMG BLU+

EXPIRED METARs :
  • 201120Z 06008G19KT 9999 BKN013 18/14 Q1006 GRN GRN BECMG WHT
  • 201020Z 06008KT 9000 BKN008 16/14 Q1006 GRN GRN TEMPO YLO
  • 200941Z 09008KT 9000 BKN007 16/13 Q1006 GRN GRN BECMG WHT
  • 200920Z 08006KT 8000 BKN006 15/13 Q1006 YLO YLO BECMG GRN

TAF TAF ETMN
Valid from the 20 at 11:00 until the 20 at 20:00 UTC


201016Z 2011/2020 07010KT 9000 NSW BKN008
TEMPO 2011/2012 08010KT 8000 NSW BKN006
BECMG 2012/2013 02010KT 9999 NSW SCT008 BKN020
TEMPO 2014/2017 36008KT 8000 NSW SCT008 SCT200
TEMPO 2018/2020 35010KT 3000 BR BKN003
No reported NOTAMs for that airfield.
1 SIGMET reported for the Bremen FIR (EDWW) :
 
Frequent thunderstorms and hail
EDWW SIGMET 1 VALID 201211/201410 EDZF
EDWW BREMEN FIR FRQ TSGR FCST APRX 20NM WID LINE BTN N5137 E01012 - N5123 E01028 TOP FL350 MOV SSW 20KT NC=



MET'MAP, your aeronautical weather chart ! - Copyright ORBIFLY December 2007 - Disclaimer

ORBIFLY MET'MAP TEAM :

Programming & Development : Alexandra Zaïnal
Concept & Development : Baudouin d'Aumeries
Co-Development & Prog : Marc-Olivier Méhu
Technical & hardware support : Manuel Goepfert

Contact : metmap@orbifly.com




SOURCES & CREDITS :

   NOAA